Terminal Aerodrome Forecast
Issued by NWS Duluth, MN

Home | Current Version | Previous Version | Text Only | Print | Product List | Glossary On
Versions: 1 2 3 4 5 6 7 8 9 10 11 12 13 14 15 16 17 18 19
000
FTUS43 KDLH 291046 AAM
TAFDLH
TAF AMD
KDLH 291046Z 2911/3006 00000KT 6SM BR FEW002
     FM291400 30005KT P6SM SCT040 SCT100
     FM291900 32010KT P6SM VCTS SCT050CB SCT100
     FM300200 36004KT P6SM VCSH FEW040=

USA.gov is the U.S. government's official web portal to all federal, state and local government web resources and services.